Time;durP1;ratioP1;P1;durP2;ratioP2;P2;SDS_P1;SDS_P2;PMS_P1;PMS_P2;Temp;Humidity;BMP_temperature;BMP_pressure;BME280_temperature;BME280_humidity;BME280_pressure;Samples;Min_cycle;Max_cycle;Signal;HPM_P1;HPM_P2
2022/03/10 00:01:29;;;;;;;3.03;1.73;;;;;;;;;;5077362;28;21621;-74
2022/03/10 00:03:56;;;;;;;2.80;2.05;;;;;;;;;;5075184;28;20022;-74
2022/03/10 00:06:22;;;;;;;1.25;1.23;;;;;;;;;;5091112;28;20653;-75
2022/03/10 00:08:48;;;;;;;0.75;0.75;;;;;;;;;;5078385;28;20028;-75
2022/03/10 00:11:13;;;;;;;4.32;2.20;;;;;;;;;;5079789;28;20028;-75
2022/03/10 00:13:39;;;;;;;2.75;2.03;;;;;;;;;;5083118;28;20029;-75
2022/03/10 00:16:05;;;;;;;2.50;1.80;;;;;;;;;;5090448;28;20024;-74
2022/03/10 00:18:31;;;;;;;1.83;1.42;;;;;;;;;;5082265;28;20032;-74
2022/03/10 00:20:57;;;;;;;3.50;3.03;;;;;;;;;;5078877;28;20028;-73
2022/03/10 00:23:23;;;;;;;2.80;1.48;;;;;;;;;;5084856;28;20032;-74
2022/03/10 00:25:49;;;;;;;6.88;3.00;;;;;;;;;;5090728;28;20039;-73
2022/03/10 00:28:15;;;;;;;46.22;2.88;;;;;;;;;;5090521;28;20026;-73
2022/03/10 00:30:41;;;;;;;2.50;1.85;;;;;;;;;;5073255;28;20032;-73
2022/03/10 00:33:06;;;;;;;4.15;3.13;;;;;;;;;;5081982;28;20406;-73
2022/03/10 00:35:32;;;;;;;4.75;1.35;;;;;;;;;;5081901;28;20032;-73
2022/03/10 00:37:59;;;;;;;0.55;0.55;;;;;;;;;;5082987;28;20067;-73
2022/03/10 00:40:25;;;;;;;1.23;1.10;;;;;;;;;;5084703;28;20028;-73
2022/03/10 00:42:51;;;;;;;1.55;1.45;;;;;;;;;;5089206;28;20114;-73
2022/03/10 00:45:18;;;;;;;5.75;4.05;;;;;;;;;;5084861;28;20063;-73
2022/03/10 00:47:44;;;;;;;5.90;1.02;;;;;;;;;;5081065;28;20036;-73
2022/03/10 00:50:10;;;;;;;1.05;0.95;;;;;;;;;;5081266;28;20066;-73
2022/03/10 00:52:45;;;;;;;4.53;2.20;;;;;;;;;;5079684;28;20559;-74
2022/03/10 00:55:12;;;;;;;0.98;0.77;;;;;;;;;;5075340;28;20568;-74
2022/03/10 00:57:38;;;;;;;2.17;2.03;;;;;;;;;;5082272;28;20028;-74
2022/03/10 01:00:05;;;;;;;5.25;3.70;;;;;;;;;;5083566;28;20040;-73
2022/03/10 01:02:32;;;;;;;2.30;1.92;;;;;;;;;;5079755;28;20032;-73
2022/03/10 01:04:58;;;;;;;1.58;1.38;;;;;;;;;;5086299;28;20028;-73
2022/03/10 01:07:24;;;;;;;5.25;3.03;;;;;;;;;;5079154;28;20036;-73
2022/03/10 01:09:51;;;;;;;0.55;0.55;;;;;;;;;;5084798;28;20056;-73
2022/03/10 01:12:17;;;;;;;1.30;1.13;;;;;;;;;;5078445;28;20028;-73
2022/03/10 01:14:43;;;;;;;4.32;1.95;;;;;;;;;;5077390;28;20056;-73
2022/03/10 01:17:09;;;;;;;1.15;1.08;;;;;;;;;;5088929;28;20059;-74
2022/03/10 01:19:35;;;;;;;1.10;0.75;;;;;;;;;;5084805;28;20032;-74
2022/03/10 01:22:01;;;;;;;1.13;1.10;;;;;;;;;;5080928;28;20032;-73
2022/03/10 01:24:27;;;;;;;3.35;1.98;;;;;;;;;;5084654;28;20040;-73
2022/03/10 01:26:53;;;;;;;0.85;0.85;;;;;;;;;;5075635;28;20064;-73
2022/03/10 01:29:19;;;;;;;0.40;0.40;;;;;;;;;;5083671;28;20024;-74
2022/03/10 01:31:45;;;;;;;2.90;1.65;;;;;;;;;;5075390;28;20112;-73
2022/03/10 01:34:11;;;;;;;0.80;0.80;;;;;;;;;;5076821;28;20029;-73
2022/03/10 01:36:37;;;;;;;0.65;0.65;;;;;;;;;;5086204;28;20488;-73
2022/03/10 01:39:04;;;;;;;0.40;0.40;;;;;;;;;;5086490;28;20036;-73
2022/03/10 01:41:32;;;;;;;2.58;1.27;;;;;;;;;;5082427;28;20051;-73
2022/03/10 01:44:03;;;;;;;1.25;0.73;;;;;;;;;;5073976;28;20032;-74
2022/03/10 01:46:29;;;;;;;1.35;1.25;;;;;;;;;;5075526;28;20039;-73
2022/03/10 01:48:55;;;;;;;0.75;0.70;;;;;;;;;;5083497;28;20020;-73
2022/03/10 01:51:23;;;;;;;2.33;1.23;;;;;;;;;;5078997;28;20036;-73
2022/03/10 01:53:50;;;;;;;0.75;0.75;;;;;;;;;;5073993;28;20436;-73
2022/03/10 01:56:16;;;;;;;1.15;1.05;;;;;;;;;;5081892;28;20033;-73
2022/03/10 01:58:42;;;;;;;0.90;0.88;;;;;;;;;;5084528;28;20040;-73
2022/03/10 02:01:10;;;;;;;5.47;2.58;;;;;;;;;;5077613;28;20109;-74
2022/03/10 02:03:36;;;;;;;0.40;0.40;;;;;;;;;;5083838;28;20028;-73
2022/03/10 02:06:02;;;;;;;0.88;0.88;;;;;;;;;;5082839;28;20051;-73
2022/03/10 02:11:13;;;;;;;2.25;1.63;;;;;;;;;;5085808;28;20081;-73
2022/03/10 02:13:38;;;;;;;6.78;2.38;;;;;;;;;;5073766;28;20420;-73
2022/03/10 02:18:49;;;;;;;0.65;0.38;;;;;;;;;;5084999;28;20047;-74
2022/03/10 02:21:15;;;;;;;0.98;0.73;;;;;;;;;;5076992;28;20029;-73
2022/03/10 02:23:41;;;;;;;0.20;0.20;;;;;;;;;;5077765;28;20031;-73
2022/03/10 02:26:07;;;;;;;1.13;1.10;;;;;;;;;;5080728;28;20037;-73
2022/03/10 02:28:34;;;;;;;0.85;0.85;;;;;;;;;;5071755;28;20074;-74
2022/03/10 02:30:59;;;;;;;1.83;1.73;;;;;;;;;;5083175;28;20112;-74
2022/03/10 02:33:25;;;;;;;0.90;0.90;;;;;;;;;;5076131;28;20059;-74
2022/03/10 02:35:51;;;;;;;2.50;1.65;;;;;;;;;;5072615;28;20505;-73
2022/03/10 02:38:18;;;;;;;0.22;0.22;;;;;;;;;;5079516;28;20462;-73
2022/03/10 02:40:47;;;;;;;1.15;1.02;;;;;;;;;;5076007;28;20055;-74
2022/03/10 02:43:13;;;;;;;0.63;0.63;;;;;;;;;;5076147;28;20028;-73
2022/03/10 02:45:39;;;;;;;0.95;0.95;;;;;;;;;;5080779;28;20046;-73
2022/03/10 02:48:05;;;;;;;0.30;0.30;;;;;;;;;;5084737;28;20463;-74
2022/03/10 02:50:31;;;;;;;2.08;1.95;;;;;;;;;;5083798;28;20028;-73
2022/03/10 02:52:56;;;;;;;0.75;0.75;;;;;;;;;;5079246;28;20081;-73
2022/03/10 02:55:22;;;;;;;1.23;1.23;;;;;;;;;;5070875;28;20024;-73
2022/03/10 02:57:49;;;;;;;1.88;0.77;;;;;;;;;;5084708;28;20081;-74
2022/03/10 03:00:15;;;;;;;0.90;0.90;;;;;;;;;;5078896;28;20060;-74
2022/03/10 03:02:41;;;;;;;0.93;0.93;;;;;;;;;;5079519;28;20040;-73
2022/03/10 03:05:09;;;;;;;0.52;0.52;;;;;;;;;;5085315;28;20059;-74
2022/03/10 03:07:36;;;;;;;0.70;0.70;;;;;;;;;;5082165;28;20044;-73
2022/03/10 03:10:02;;;;;;;0.40;0.40;;;;;;;;;;5073594;28;20090;-73
2022/03/10 03:12:28;;;;;;;0.52;0.52;;;;;;;;;;5078499;28;20035;-74
2022/03/10 03:14:54;;;;;;;0.68;0.68;;;;;;;;;;5077558;28;20028;-74
2022/03/10 03:17:20;;;;;;;1.45;1.27;;;;;;;;;;5080594;28;20469;-73
2022/03/10 03:19:46;;;;;;;1.13;0.73;;;;;;;;;;5077832;28;20036;-73
2022/03/10 03:22:12;;;;;;;0.85;0.85;;;;;;;;;;5074125;28;20032;-74
2022/03/10 03:24:38;;;;;;;0.20;0.20;;;;;;;;;;5073448;28;20116;-73
2022/03/10 03:27:04;;;;;;;0.55;0.55;;;;;;;;;;5078130;28;20032;-73
2022/03/10 03:29:30;;;;;;;0.75;0.75;;;;;;;;;;5082543;28;20028;-73
2022/03/10 03:31:56;;;;;;;0.32;0.32;;;;;;;;;;5073479;28;20033;-74
2022/03/10 03:34:22;;;;;;;0.85;0.85;;;;;;;;;;5073989;28;20043;-73
2022/03/10 03:36:48;;;;;;;0.80;0.80;;;;;;;;;;5075493;28;20063;-74
2022/03/10 03:39:14;;;;;;;0.40;0.40;;;;;;;;;;5074776;28;20474;-74
2022/03/10 03:41:41;;;;;;;2.25;1.85;;;;;;;;;;5077867;28;20501;-73
2022/03/10 03:44:07;;;;;;;0.70;0.70;;;;;;;;;;5079547;28;20084;-74
2022/03/10 03:46:34;;;;;;;0.70;0.70;;;;;;;;;;5075151;28;20025;-74
2022/03/10 03:49:00;;;;;;;0.20;0.20;;;;;;;;;;5075103;28;20028;-74
2022/03/10 03:51:26;;;;;;;0.55;0.55;;;;;;;;;;5077673;28;20027;-73
2022/03/10 03:53:52;;;;;;;0.90;0.90;;;;;;;;;;5075052;28;20029;-73
2022/03/10 03:56:18;;;;;;;0.65;0.65;;;;;;;;;;5082569;28;20036;-74
2022/03/10 03:58:44;;;;;;;1.85;1.45;;;;;;;;;;5072208;28;20044;-73
2022/03/10 04:01:10;;;;;;;0.57;0.57;;;;;;;;;;5073728;28;20518;-74
2022/03/10 04:03:36;;;;;;;1.60;1.50;;;;;;;;;;5083168;28;20036;-73
2022/03/10 04:06:02;;;;;;;2.25;1.52;;;;;;;;;;5073884;28;20048;-73
2022/03/10 04:08:28;;;;;;;2.90;2.65;;;;;;;;;;5071153;28;20467;-73
2022/03/10 04:10:54;;;;;;;0.28;0.28;;;;;;;;;;5081634;28;20024;-74
2022/03/10 04:13:24;;;;;;;1.15;0.70;;;;;;;;;;5079586;28;20031;-74
2022/03/10 04:15:51;;;;;;;1.20;0.57;;;;;;;;;;5082412;28;20031;-74
2022/03/10 04:18:17;;;;;;;1.35;1.25;;;;;;;;;;5088668;28;20055;-74
2022/03/10 04:20:43;;;;;;;0.77;0.77;;;;;;;;;;5079663;28;20028;-74
2022/03/10 04:23:10;;;;;;;0.28;0.28;;;;;;;;;;5079006;28;20032;-74
2022/03/10 04:25:36;;;;;;;0.57;0.57;;;;;;;;;;5087649;28;20717;-74
2022/03/10 04:28:02;;;;;;;0.28;0.28;;;;;;;;;;5074437;28;20051;-74
2022/03/10 04:30:29;;;;;;;0.40;0.40;;;;;;;;;;5080019;28;20021;-74
2022/03/10 04:32:54;;;;;;;1.60;1.50;;;;;;;;;;5076516;28;20016;-74
2022/03/10 04:35:20;;;;;;;4.00;2.03;;;;;;;;;;5085297;28;20537;-74
2022/03/10 04:37:51;;;;;;;0.20;0.20;;;;;;;;;;5079221;28;20028;-74
2022/03/10 04:40:17;;;;;;;0.75;0.75;;;;;;;;;;5084985;28;20115;-75
2022/03/10 04:42:43;;;;;;;1.38;0.95;;;;;;;;;;5079706;28;20029;-74
2022/03/10 04:45:09;;;;;;;0.30;0.30;;;;;;;;;;5082911;28;20746;-74
2022/03/10 04:47:35;;;;;;;1.75;0.75;;;;;;;;;;5078154;28;20031;-75
2022/03/10 04:50:05;;;;;;;0.82;0.82;;;;;;;;;;5079515;28;20110;-74
2022/03/10 04:52:31;;;;;;;0.75;0.63;;;;;;;;;;5082175;28;20024;-75
2022/03/10 04:54:57;;;;;;;0.88;0.88;;;;;;;;;;5083853;28;20363;-75
2022/03/10 04:57:23;;;;;;;0.63;0.63;;;;;;;;;;5078940;28;20028;-75
2022/03/10 04:59:49;;;;;;;1.77;1.15;;;;;;;;;;5075064;28;20071;-74
2022/03/10 05:02:15;;;;;;;1.17;1.17;;;;;;;;;;5083986;28;20072;-74
2022/03/10 05:04:41;;;;;;;1.95;0.85;;;;;;;;;;5072648;28;20032;-74
2022/03/10 05:07:07;;;;;;;1.73;1.60;;;;;;;;;;5074056;28;20176;-75
2022/03/10 05:09:33;;;;;;;1.10;1.02;;;;;;;;;;5080021;28;20048;-75
2022/03/10 05:11:59;;;;;;;3.30;1.52;;;;;;;;;;5088062;28;20097;-75
2022/03/10 05:14:25;;;;;;;1.42;1.33;;;;;;;;;;5080965;28;20024;-75
2022/03/10 05:16:51;;;;;;;1.00;0.70;;;;;;;;;;5089614;28;20043;-74
2022/03/10 05:19:18;;;;;;;2.22;1.65;;;;;;;;;;5084468;28;20137;-74
2022/03/10 05:21:44;;;;;;;1.17;0.60;;;;;;;;;;5077436;28;20050;-74
2022/03/10 05:24:10;;;;;;;1.67;1.58;;;;;;;;;;5077751;28;20028;-75
2022/03/10 05:26:37;;;;;;;4.93;0.95;;;;;;;;;;5081410;28;20536;-74
2022/03/10 05:29:03;;;;;;;1.85;1.05;;;;;;;;;;5082719;28;20059;-75
2022/03/10 05:31:29;;;;;;;1.00;0.85;;;;;;;;;;5080681;28;20467;-75
2022/03/10 05:33:55;;;;;;;0.68;0.68;;;;;;;;;;5075495;28;20111;-75
2022/03/10 05:36:21;;;;;;;1.27;0.85;;;;;;;;;;5079465;28;20036;-74
2022/03/10 05:38:47;;;;;;;3.15;2.40;;;;;;;;;;5072118;28;20231;-75
2022/03/10 05:41:13;;;;;;;0.20;0.20;;;;;;;;;;5077267;28;20039;-75
2022/03/10 05:43:39;;;;;;;0.20;0.20;;;;;;;;;;5080673;28;20032;-75
2022/03/10 05:46:05;;;;;;;1.65;1.25;;;;;;;;;;5079428;28;20478;-74
2022/03/10 05:48:31;;;;;;;2.38;1.58;;;;;;;;;;5079461;28;20066;-75
2022/03/10 05:50:58;;;;;;;0.80;0.80;;;;;;;;;;5085949;28;20036;-75
2022/03/10 05:53:24;;;;;;;0.47;0.47;;;;;;;;;;5077718;28;20600;-75
2022/03/10 05:55:50;;;;;;;2.38;1.77;;;;;;;;;;5088699;28;20072;-75
2022/03/10 05:58:16;;;;;;;2.70;1.70;;;;;;;;;;5074909;28;20060;-75
2022/03/10 06:00:41;;;;;;;1.23;1.15;;;;;;;;;;5082969;28;20051;-75
2022/03/10 06:03:08;;;;;;;3.45;1.35;;;;;;;;;;5072450;28;20440;-75
2022/03/10 06:05:34;;;;;;;0.73;0.52;;;;;;;;;;5075822;28;20048;-75
2022/03/10 06:08:00;;;;;;;0.55;0.55;;;;;;;;;;5079499;28;20359;-75
2022/03/10 06:10:26;;;;;;;2.35;1.35;;;;;;;;;;5086362;28;20028;-74
2022/03/10 06:12:52;;;;;;;2.75;2.40;;;;;;;;;;5079836;28;20032;-75
2022/03/10 06:15:18;;;;;;;1.25;1.15;;;;;;;;;;5082007;28;20031;-75
2022/03/10 06:17:44;;;;;;;6.13;3.35;;;;;;;;;;5077046;28;20032;-75
2022/03/10 06:20:14;;;;;;;3.95;2.42;;;;;;;;;;5077530;28;20059;-75
2022/03/10 06:22:40;;;;;;;4.43;1.38;;;;;;;;;;5083337;28;20028;-76
2022/03/10 06:25:09;;;;;;;3.08;2.53;;;;;;;;;;5075720;28;20038;-75
2022/03/10 06:27:35;;;;;;;0.47;0.47;;;;;;;;;;5085284;28;20036;-75
2022/03/10 06:30:01;;;;;;;7.35;1.42;;;;;;;;;;5080918;28;20502;-75
2022/03/10 06:32:28;;;;;;;3.08;2.78;;;;;;;;;;5082693;28;20471;-75
2022/03/10 06:34:56;;;;;;;1.55;1.27;;;;;;;;;;5080728;28;20455;-75
2022/03/10 06:37:22;;;;;;;0.82;0.82;;;;;;;;;;5079585;28;20035;-70
2022/03/10 06:39:48;;;;;;;10.02;2.65;;;;;;;;;;5079181;28;20043;-72
2022/03/10 06:42:14;;;;;;;3.35;2.22;;;;;;;;;;5082640;28;20032;-71
2022/03/10 06:44:40;;;;;;;3.67;1.42;;;;;;;;;;5086350;28;20046;-71
2022/03/10 06:47:07;;;;;;;0.38;0.38;;;;;;;;;;5079758;28;20475;-72
2022/03/10 06:49:33;;;;;;;1.00;1.00;;;;;;;;;;5087502;28;20036;-72
2022/03/10 06:51:59;;;;;;;3.25;1.48;;;;;;;;;;5074331;28;20028;-70
2022/03/10 06:54:25;;;;;;;4.28;1.17;;;;;;;;;;5078254;28;20070;-69
2022/03/10 06:56:51;;;;;;;1.10;1.05;;;;;;;;;;5078295;28;20028;-69
2022/03/10 06:59:17;;;;;;;1.75;1.65;;;;;;;;;;5082512;28;20028;-69
2022/03/10 07:01:43;;;;;;;0.30;0.30;;;;;;;;;;5077446;28;20020;-68
2022/03/10 07:04:09;;;;;;;1.33;1.17;;;;;;;;;;5083233;28;20039;-69
2022/03/10 07:06:35;;;;;;;8.52;3.30;;;;;;;;;;5080017;28;20402;-69
2022/03/10 07:09:01;;;;;;;0.40;0.40;;;;;;;;;;5079997;28;20039;-69
2022/03/10 07:11:27;;;;;;;0.65;0.65;;;;;;;;;;5076895;28;20027;-69
2022/03/10 07:13:53;;;;;;;0.50;0.50;;;;;;;;;;5074072;28;20077;-69
2022/03/10 07:16:19;;;;;;;4.85;1.98;;;;;;;;;;5072521;28;20119;-71
2022/03/10 07:18:50;;;;;;;2.08;1.88;;;;;;;;;;5077801;28;20028;-69
2022/03/10 07:21:22;;;;;;;2.47;0.60;;;;;;;;;;5074074;28;20502;-70
2022/03/10 07:23:48;;;;;;;1.95;1.80;;;;;;;;;;5078283;28;20035;-69
2022/03/10 07:26:14;;;;;;;0.80;0.80;;;;;;;;;;5072555;28;20052;-70
2022/03/10 07:28:42;;;;;;;2.47;1.85;;;;;;;;;;5073574;28;20454;-69
2022/03/10 07:31:08;;;;;;;1.50;1.40;;;;;;;;;;5065509;28;20033;-70
2022/03/10 07:33:34;;;;;;;2.35;1.00;;;;;;;;;;5070756;28;20052;-70
2022/03/10 07:36:00;;;;;;;1.48;1.33;;;;;;;;;;5071768;28;20117;-70
2022/03/10 07:38:25;;;;;;;3.10;2.83;;;;;;;;;;5079315;28;20076;-70
2022/03/10 07:40:51;;;;;;;5.15;2.08;;;;;;;;;;5072462;28;20133;-74
2022/03/10 07:43:17;;;;;;;9.63;2.65;;;;;;;;;;5084432;28;20113;-78
2022/03/10 07:45:46;;;;;;;1.17;1.13;;;;;;;;;;5077212;28;20177;-69
2022/03/10 07:48:12;;;;;;;1.85;1.65;;;;;;;;;;5078619;28;20071;-69
2022/03/10 07:50:38;;;;;;;0.98;0.98;;;;;;;;;;5083568;28;20052;-70
2022/03/10 07:53:04;;;;;;;4.63;1.85;;;;;;;;;;5086560;28;20040;-70
2022/03/10 07:55:30;;;;;;;3.38;2.10;;;;;;;;;;5088487;28;20036;-70
2022/03/10 07:57:56;;;;;;;6.20;1.75;;;;;;;;;;5082417;28;20040;-70
2022/03/10 08:00:22;;;;;;;4.68;2.78;;;;;;;;;;5085942;28;20457;-72
2022/03/10 08:02:48;;;;;;;3.75;2.00;;;;;;;;;;5081452;28;20392;-70
2022/03/10 08:05:14;;;;;;;4.38;2.97;;;;;;;;;;5082550;28;20077;-70
2022/03/10 08:07:40;;;;;;;1.45;1.35;;;;;;;;;;5094586;28;20031;-70
2022/03/10 08:10:06;;;;;;;1.15;1.05;;;;;;;;;;5085903;28;20032;-69
2022/03/10 08:12:33;;;;;;;2.72;2.05;;;;;;;;;;5076378;28;20391;-69
2022/03/10 08:14:59;;;;;;;0.40;0.40;;;;;;;;;;5079189;28;20523;-69
2022/03/10 08:17:25;;;;;;;1.98;1.73;;;;;;;;;;5079770;28;20029;-69
2022/03/10 08:19:52;;;;;;;3.20;1.80;;;;;;;;;;5079811;28;20035;-69
2022/03/10 08:22:19;;;;;;;4.47;3.42;;;;;;;;;;5078443;28;20033;-68
2022/03/10 08:24:45;;;;;;;2.22;1.83;;;;;;;;;;5073014;28;20527;-69
2022/03/10 08:27:11;;;;;;;2.72;1.95;;;;;;;;;;5090262;28;20078;-69
2022/03/10 08:29:38;;;;;;;0.57;0.57;;;;;;;;;;5078034;28;20456;-69
2022/03/10 08:32:06;;;;;;;2.50;1.85;;;;;;;;;;5082472;28;20546;-73
2022/03/10 08:34:32;;;;;;;0.98;0.90;;;;;;;;;;5084695;28;20033;-72
2022/03/10 08:36:58;;;;;;;8.68;1.45;;;;;;;;;;5083828;28;20039;-73
2022/03/10 08:39:24;;;;;;;0.50;0.38;;;;;;;;;;5087032;28;20178;-73
2022/03/10 08:41:51;;;;;;;1.38;1.27;;;;;;;;;;5082689;28;20028;-70
2022/03/10 08:44:18;;;;;;;1.77;1.38;;;;;;;;;;5075381;28;20036;-74
2022/03/10 08:46:44;;;;;;;1.23;1.13;;;;;;;;;;5088616;28;20073;-72
2022/03/10 08:49:10;;;;;;;4.70;2.63;;;;;;;;;;5085039;28;20503;-73
2022/03/10 08:51:37;;;;;;;5.57;2.40;;;;;;;;;;5080499;28;20027;-72
2022/03/10 08:54:03;;;;;;;0.82;0.82;;;;;;;;;;5075407;28;20031;-70
2022/03/10 08:56:29;;;;;;;3.95;2.90;;;;;;;;;;5075884;28;20051;-71
2022/03/10 08:58:58;;;;;;;1.27;1.25;;;;;;;;;;5066113;28;20424;-71
2022/03/10 09:01:24;;;;;;;1.20;1.10;;;;;;;;;;5076367;28;20504;-72
2022/03/10 09:03:50;;;;;;;1.35;1.25;;;;;;;;;;5074125;28;20028;-72
2022/03/10 09:06:16;;;;;;;0.70;0.70;;;;;;;;;;5071271;28;20070;-71
2022/03/10 09:08:45;;;;;;;3.80;1.98;;;;;;;;;;5072445;28;20486;-72
2022/03/10 09:11:11;;;;;;;3.63;2.75;;;;;;;;;;5078651;28;20032;-72
2022/03/10 09:13:37;;;;;;;2.88;1.60;;;;;;;;;;5079259;28;20255;-75
2022/03/10 09:16:03;;;;;;;2.42;2.22;;;;;;;;;;5077107;28;20016;-78
2022/03/10 09:18:29;;;;;;;1.08;1.02;;;;;;;;;;5079375;28;20028;-72
2022/03/10 09:20:54;;;;;;;1.05;1.02;;;;;;;;;;5068369;28;20023;-72
2022/03/10 09:23:21;;;;;;;6.97;2.60;;;;;;;;;;5070873;28;20031;-71
2022/03/10 09:25:47;;;;;;;14.48;2.88;;;;;;;;;;5079445;28;20028;-72
2022/03/10 09:28:13;;;;;;;6.43;4.32;;;;;;;;;;5069891;28;20378;-71
2022/03/10 09:30:39;;;;;;;6.32;4.03;;;;;;;;;;5071857;28;20266;-71
2022/03/10 09:33:05;;;;;;;1.02;1.00;;;;;;;;;;5081884;28;20498;-72
2022/03/10 09:35:31;;;;;;;1.63;1.52;;;;;;;;;;5082343;28;20503;-71
2022/03/10 09:37:57;;;;;;;4.05;2.22;;;;;;;;;;5080266;28;20030;-73
2022/03/10 09:40:23;;;;;;;1.45;1.35;;;;;;;;;;5077340;28;20111;-74
2022/03/10 09:42:49;;;;;;;4.35;1.58;;;;;;;;;;5070334;28;20060;-74
2022/03/10 09:45:16;;;;;;;2.33;2.10;;;;;;;;;;5072907;28;20490;-73
2022/03/10 09:47:44;;;;;;;4.15;2.55;;;;;;;;;;5067276;28;20040;-73
2022/03/10 09:50:11;;;;;;;6.50;4.28;;;;;;;;;;5069402;28;20575;-73
2022/03/10 09:52:37;;;;;;;4.88;2.22;;;;;;;;;;5083428;28;20035;-74
2022/03/10 09:55:04;;;;;;;3.25;2.55;;;;;;;;;;5078913;28;20371;-73
2022/03/10 09:57:30;;;;;;;17.27;3.35;;;;;;;;;;5076985;28;20024;-74
2022/03/10 09:59:57;;;;;;;2.72;1.50;;;;;;;;;;5077816;28;20078;-73
2022/03/10 10:02:23;;;;;;;3.40;1.42;;;;;;;;;;5073979;28;20028;-73
2022/03/10 10:04:51;;;;;;;6.22;3.00;;;;;;;;;;5074867;28;20029;-74
2022/03/10 10:07:21;;;;;;;1.65;0.95;;;;;;;;;;5069769;28;20060;-73
2022/03/10 10:09:51;;;;;;;3.03;2.67;;;;;;;;;;5081865;28;20055;-74
2022/03/10 10:12:17;;;;;;;2.30;1.70;;;;;;;;;;5071842;28;20972;-73
2022/03/10 10:14:44;;;;;;;1.05;1.05;;;;;;;;;;5077746;28;20074;-72
2022/03/10 10:17:10;;;;;;;1.42;0.95;;;;;;;;;;5067760;28;20024;-75
2022/03/10 10:19:37;;;;;;;2.42;2.17;;;;;;;;;;5074547;28;20115;-73
2022/03/10 10:22:20;;;;;;;3.78;2.80;;;;;;;;;;5070904;28;20043;-75
2022/03/10 10:24:57;;;;;;;0.82;0.80;;;;;;;;;;5064416;28;20028;-75
2022/03/10 10:27:25;;;;;;;2.63;1.20;;;;;;;;;;5070861;28;20025;-76
2022/03/10 10:29:52;;;;;;;1.00;1.00;;;;;;;;;;5071404;28;20059;-75
2022/03/10 10:32:24;;;;;;;1.30;0.95;;;;;;;;;;5075840;28;20390;-75
2022/03/10 10:35:00;;;;;;;0.50;0.50;;;;;;;;;;5076293;28;21548;-75
2022/03/10 10:37:26;;;;;;;1.23;1.13;;;;;;;;;;5072093;28;20021;-75
2022/03/10 10:39:52;;;;;;;0.20;0.20;;;;;;;;;;5070718;28;20127;-76
2022/03/10 10:42:18;;;;;;;1.50;1.35;;;;;;;;;;5068473;28;20024;-75
2022/03/10 10:44:44;;;;;;;1.42;1.33;;;;;;;;;;5066660;28;20039;-75
2022/03/10 10:47:10;;;;;;;0.47;0.47;;;;;;;;;;5078304;28;20032;-75
2022/03/10 10:49:36;;;;;;;2.40;1.33;;;;;;;;;;5064318;28;20028;-76
2022/03/10 10:52:03;;;;;;;0.63;0.63;;;;;;;;;;5069109;28;20438;-76
2022/03/10 10:54:31;;;;;;;1.73;1.63;;;;;;;;;;5082109;28;20028;-75
2022/03/10 10:56:58;;;;;;;1.73;1.38;;;;;;;;;;5074828;28;20028;-75
2022/03/10 10:59:28;;;;;;;1.20;1.02;;;;;;;;;;5080148;28;20043;-75
2022/03/10 11:02:12;;;;;;;0.80;0.80;;;;;;;;;;5078506;28;20040;-75
2022/03/10 11:04:39;;;;;;;1.92;1.77;;;;;;;;;;5075975;28;20023;-72
2022/03/10 11:07:08;;;;;;;0.68;0.68;;;;;;;;;;5067825;28;20044;-71
2022/03/10 11:09:34;;;;;;;2.55;1.80;;;;;;;;;;5064987;28;20012;-72
2022/03/10 11:12:00;;;;;;;0.60;0.60;;;;;;;;;;5073359;28;20028;-72
2022/03/10 11:14:26;;;;;;;2.10;0.90;;;;;;;;;;5071482;28;20036;-72
2022/03/10 11:16:53;;;;;;;1.02;1.02;;;;;;;;;;5088965;28;20486;-72
2022/03/10 11:19:25;;;;;;;43.53;4.40;;;;;;;;;;5078476;28;20060;-72
2022/03/10 11:22:03;;;;;;;3.05;1.55;;;;;;;;;;5085362;28;20390;-72
2022/03/10 11:24:47;;;;;;;1.38;1.13;;;;;;;;;;5068673;28;20085;-72
2022/03/10 11:27:22;;;;;;;2.05;1.95;;;;;;;;;;5081429;28;20028;-72
2022/03/10 11:29:50;;;;;;;4.60;1.95;;;;;;;;;;5064577;28;20043;-72
2022/03/10 11:32:16;;;;;;;4.85;1.17;;;;;;;;;;5072237;28;20078;-72
2022/03/10 11:34:55;;;;;;;1.05;0.93;;;;;;;;;;5082440;28;20033;-72
2022/03/10 11:37:40;;;;;;;5.30;1.13;;;;;;;;;;5075747;28;20040;-72
2022/03/10 11:40:07;;;;;;;1.45;1.35;;;;;;;;;;5070524;28;20106;-71
2022/03/10 11:42:33;;;;;;;0.45;0.45;;;;;;;;;;5068297;28;20035;-72
2022/03/10 11:45:05;;;;;;;1.20;0.65;;;;;;;;;;5072579;28;20150;-72
2022/03/10 11:47:31;;;;;;;4.15;1.45;;;;;;;;;;5072323;28;20024;-72
2022/03/10 11:49:57;;;;;;;0.38;0.38;;;;;;;;;;5073545;28;20568;-72
2022/03/10 11:52:24;;;;;;;3.33;1.80;;;;;;;;;;5072613;28;20727;-72
2022/03/10 11:55:08;;;;;;;4.22;1.27;;;;;;;;;;5072304;28;20071;-72
2022/03/10 11:58:06;;;;;;;4.63;2.72;;;;;;;;;;5074661;28;20027;-71
2022/03/10 12:00:41;;;;;;;1.35;1.25;;;;;;;;;;5069631;28;20043;-73
2022/03/10 12:03:08;;;;;;;0.85;0.85;;;;;;;;;;5078675;28;20024;-72
2022/03/10 12:05:52;;;;;;;2.47;1.48;;;;;;;;;;5076122;28;20501;-72
2022/03/10 12:08:22;;;;;;;1.27;1.17;;;;;;;;;;5082381;28;20067;-72
2022/03/10 12:10:48;;;;;;;0.47;0.47;;;;;;;;;;5069696;28;20064;-71
2022/03/10 12:13:25;;;;;;;1.30;1.20;;;;;;;;;;5076014;28;20024;-73
2022/03/10 12:15:52;;;;;;;1.30;1.13;;;;;;;;;;5070185;28;20078;-72
2022/03/10 12:18:19;;;;;;;0.93;0.93;;;;;;;;;;5073472;28;20621;-73
2022/03/10 12:20:46;;;;;;;3.47;1.65;;;;;;;;;;5080005;28;20025;-71
2022/03/10 12:23:13;;;;;;;0.82;0.82;;;;;;;;;;5081806;28;20043;-72
2022/03/10 12:25:46;;;;;;;2.70;2.30;;;;;;;;;;5076756;28;20050;-72
2022/03/10 12:28:36;;;;;;;1.13;0.77;;;;;;;;;;5088848;28;20073;-73
2022/03/10 12:31:29;;;;;;;0.28;0.28;;;;;;;;;;5076545;28;20030;-73
2022/03/10 12:33:56;;;;;;;0.57;0.57;;;;;;;;;;5080156;28;20060;-73
2022/03/10 12:36:30;;;;;;;1.85;1.65;;;;;;;;;;5075131;28;20028;-77
2022/03/10 12:38:58;;;;;;;0.40;0.40;;;;;;;;;;5088141;28;20024;-73
2022/03/10 12:41:33;;;;;;;1.98;1.40;;;;;;;;;;5081128;28;20522;-73
2022/03/10 12:44:01;;;;;;;4.25;0.85;;;;;;;;;;5077651;28;20020;-73
2022/03/10 12:46:29;;;;;;;4.82;2.13;;;;;;;;;;5077637;28;20026;-73
2022/03/10 12:48:59;;;;;;;0.98;0.98;;;;;;;;;;5076585;28;20117;-73
2022/03/10 12:51:28;;;;;;;2.00;1.50;;;;;;;;;;5073582;28;20119;-73
2022/03/10 12:53:54;;;;;;;0.82;0.82;;;;;;;;;;5087689;28;20107;-73
2022/03/10 12:56:20;;;;;;;0.32;0.25;;;;;;;;;;5083646;28;20538;-73
2022/03/10 12:58:50;;;;;;;1.90;0.55;;;;;;;;;;5076208;28;20032;-73
2022/03/10 13:01:16;;;;;;;2.17;1.48;;;;;;;;;;5089529;28;20508;-72
2022/03/10 13:03:56;;;;;;;3.03;1.88;;;;;;;;;;5081816;28;20536;-73
2022/03/10 13:06:23;;;;;;;2.38;1.33;;;;;;;;;;5073536;28;21328;-75
2022/03/10 13:08:50;;;;;;;0.60;0.60;;;;;;;;;;5083651;28;20471;-74
2022/03/10 13:11:37;;;;;;;1.77;1.48;;;;;;;;;;5083809;28;20093;-75
2022/03/10 13:14:23;;;;;;;4.95;1.92;;;;;;;;;;5072124;28;20028;-75
2022/03/10 13:16:49;;;;;;;1.70;1.58;;;;;;;;;;5084903;28;20024;-74
2022/03/10 13:19:20;;;;;;;1.35;1.15;;;;;;;;;;5082375;28;20056;-75
2022/03/10 13:22:09;;;;;;;1.75;1.23;;;;;;;;;;5087496;28;20028;-75
2022/03/10 13:24:41;;;;;;;1.15;1.05;;;;;;;;;;5074812;28;20490;-75
2022/03/10 13:27:08;;;;;;;1.63;1.52;;;;;;;;;;5083707;28;20490;-76
2022/03/10 13:29:35;;;;;;;2.15;1.58;;;;;;;;;;5073151;28;20055;-75
2022/03/10 13:32:01;;;;;;;1.45;1.38;;;;;;;;;;5083950;28;20020;-75
2022/03/10 13:34:27;;;;;;;0.55;0.55;;;;;;;;;;5078146;28;20024;-75
2022/03/10 13:36:53;;;;;;;0.65;0.65;;;;;;;;;;5080383;28;20662;-76
2022/03/10 13:39:27;;;;;;;2.33;1.70;;;;;;;;;;5068676;28;20016;-75
2022/03/10 13:41:53;;;;;;;2.22;1.58;;;;;;;;;;5066283;28;20024;-75
2022/03/10 13:44:19;;;;;;;1.00;0.93;;;;;;;;;;5080265;28;20026;-75
2022/03/10 13:46:45;;;;;;;0.70;0.70;;;;;;;;;;5071985;28;20368;-75
2022/03/10 13:49:21;;;;;;;1.13;1.00;;;;;;;;;;5084975;28;20427;-75
2022/03/10 13:51:47;;;;;;;1.38;0.85;;;;;;;;;;5079158;28;20054;-75
2022/03/10 13:54:14;;;;;;;1.27;1.05;;;;;;;;;;5076053;28;20482;-75
2022/03/10 13:56:44;;;;;;;0.63;0.63;;;;;;;;;;5081296;28;20360;-75
2022/03/10 13:59:11;;;;;;;0.93;0.93;;;;;;;;;;5076458;28;20701;-75
2022/03/10 14:01:38;;;;;;;5.43;2.33;;;;;;;;;;5086398;28;20518;-75
2022/03/10 14:04:08;;;;;;;1.00;0.90;;;;;;;;;;5083399;28;20070;-75
2022/03/10 14:06:41;;;;;;;4.40;1.67;;;;;;;;;;5068736;28;20045;-75
2022/03/10 14:09:15;;;;;;;4.57;2.08;;;;;;;;;;5065656;28;20040;-75
2022/03/10 14:11:41;;;;;;;13.65;1.27;;;;;;;;;;5068824;28;20502;-75
2022/03/10 14:14:07;;;;;;;0.75;0.75;;;;;;;;;;5074775;28;20024;-75
2022/03/10 14:16:33;;;;;;;0.88;0.82;;;;;;;;;;5080232;28;20382;-75
2022/03/10 14:19:02;;;;;;;1.30;1.20;;;;;;;;;;5085553;28;20024;-75
2022/03/10 14:21:28;;;;;;;0.73;0.70;;;;;;;;;;5079476;28;20023;-75
2022/03/10 14:24:01;;;;;;;1.77;1.65;;;;;;;;;;5086425;28;20020;-75
2022/03/10 14:26:36;;;;;;;4.22;2.45;;;;;;;;;;5084850;28;20074;-75
2022/03/10 14:29:03;;;;;;;1.20;0.63;;;;;;;;;;5087477;28;20032;-75
2022/03/10 14:31:29;;;;;;;1.75;0.82;;;;;;;;;;5070846;28;20025;-75
2022/03/10 14:33:55;;;;;;;1.80;1.25;;;;;;;;;;5086506;28;20024;-76
2022/03/10 14:36:23;;;;;;;0.80;0.77;;;;;;;;;;5070562;28;20112;-75
2022/03/10 14:38:49;;;;;;;0.80;0.80;;;;;;;;;;5081112;28;20028;-76
2022/03/10 14:41:26;;;;;;;0.82;0.70;;;;;;;;;;5079140;28;20513;-76
2022/03/10 14:43:52;;;;;;;6.32;1.83;;;;;;;;;;5076113;28;20390;-76
2022/03/10 14:46:18;;;;;;;1.00;1.00;;;;;;;;;;5073613;28;20024;-75
2022/03/10 14:48:44;;;;;;;1.92;1.35;;;;;;;;;;5081446;28;20148;-73
2022/03/10 14:51:11;;;;;;;2.50;1.33;;;;;;;;;;5067567;28;20024;-71